Time;durP1;ratioP1;P1;durP2;ratioP2;P2;SDS_P1;SDS_P2;PMS_P1;PMS_P2;Temp;Humidity;BMP_temperature;BMP_pressure;BME280_temperature;BME280_humidity;BME280_pressure;Samples;Min_cycle;Max_cycle;Signal;HPM_P1;HPM_P2
2022/12/04 00:01:40;;;;;;;35.40;16.63;;;0.60;99.90;;;;;;5030872;28;20033;-69
2022/12/04 00:04:06;;;;;;;36.47;16.48;;;0.60;99.90;;;;;;5031950;28;20398;-70
2022/12/04 00:06:32;;;;;;;37.60;17.10;;;0.60;99.90;;;;;;5037171;28;20081;-70
2022/12/04 00:08:58;;;;;;;38.40;17.55;;;0.60;99.90;;;;;;5033748;28;20091;-71
2022/12/04 00:11:27;;;;;;;36.05;17.08;;;0.60;99.90;;;;;;5033989;28;20227;-69
2022/12/04 00:13:53;;;;;;;39.15;17.40;;;0.60;99.90;;;;;;5024141;28;20132;-69
2022/12/04 00:16:22;;;;;;;36.67;16.25;;;0.60;99.90;;;;;;5065786;28;20189;-69
2022/12/04 00:18:48;;;;;;;36.17;16.42;;;0.60;99.90;;;;;;5036728;28;20064;-70
2022/12/04 00:21:15;;;;;;;38.30;18.33;;;0.60;99.90;;;;;;5032704;28;20049;-70
2022/12/04 00:23:42;;;;;;;38.25;15.52;;;0.60;99.90;;;;;;5033943;28;20037;-70
2022/12/04 00:26:11;;;;;;;36.20;16.15;;;0.60;99.90;;;;;;5064775;28;20044;-69
2022/12/04 00:28:37;;;;;;;33.47;15.75;;;0.60;99.90;;;;;;5033184;28;20540;-69
2022/12/04 00:31:09;;;;;;;37.28;16.63;;;0.60;99.90;;;;;;5063368;28;20475;-68
2022/12/04 00:33:35;;;;;;;38.42;16.30;;;0.60;99.90;;;;;;5035400;28;20069;-69
2022/12/04 00:36:06;;;;;;;35.38;15.27;;;0.60;99.90;;;;;;5037073;28;20086;-70
2022/12/04 00:38:31;;;;;;;35.97;16.75;;;0.60;99.90;;;;;;5031274;28;20592;-69
2022/12/04 00:40:59;;;;;;;38.00;15.70;;;0.60;99.90;;;;;;5032639;28;20175;-69
2022/12/04 00:43:26;;;;;;;37.25;16.45;;;0.60;99.90;;;;;;5065798;28;20419;-68
2022/12/04 00:45:52;;;;;;;35.10;16.45;;;0.80;99.90;;;;;;5033572;28;20077;-68
2022/12/04 00:48:17;;;;;;;34.75;15.40;;;0.60;99.90;;;;;;5033642;28;20068;-69
2022/12/04 00:50:43;;;;;;;37.70;17.80;;;0.60;99.90;;;;;;5035145;28;20040;-69
2022/12/04 00:53:09;;;;;;;35.58;17.08;;;0.60;99.90;;;;;;5033902;28;20464;-69
2022/12/04 00:55:42;;;;;;;39.00;16.42;;;0.60;99.90;;;;;;5031071;28;20068;-69
2022/12/04 00:58:09;;;;;;;36.20;16.60;;;0.60;99.90;;;;;;5031618;28;20474;-69
2022/12/04 01:00:37;;;;;;;37.92;16.65;;;0.60;99.90;;;;;;5033476;28;20375;-69
2022/12/04 01:03:03;;;;;;;35.65;16.92;;;0.60;99.90;;;;;;5037417;28;20056;-69
2022/12/04 01:05:29;;;;;;;36.65;17.00;;;0.60;99.90;;;;;;5031334;28;20041;-68
2022/12/04 01:07:54;;;;;;;34.47;17.33;;;0.60;99.90;;;;;;5038000;28;20469;-69
2022/12/04 01:10:20;;;;;;;40.85;17.50;;;0.60;99.90;;;;;;5028112;28;20072;-67
2022/12/04 01:12:49;;;;;;;38.75;17.17;;;0.50;99.90;;;;;;5034275;28;20050;-69
2022/12/04 01:15:14;;;;;;;36.45;17.27;;;0.50;99.90;;;;;;5039277;28;20619;-68
2022/12/04 01:17:40;;;;;;;35.47;15.80;;;0.50;99.90;;;;;;5034468;28;20045;-69
2022/12/04 01:20:06;;;;;;;43.67;18.45;;;0.50;99.90;;;;;;5013917;28;20075;-70
2022/12/04 01:22:32;;;;;;;39.38;18.27;;;0.50;99.90;;;;;;5032918;28;20049;-70
2022/12/04 01:25:01;;;;;;;40.42;17.83;;;0.80;99.90;;;;;;5034792;28;20071;-70
2022/12/04 01:27:27;;;;;;;42.63;19.13;;;0.40;99.90;;;;;;5034124;28;20092;-70
2022/12/04 01:29:52;;;;;;;39.13;18.27;;;0.40;99.90;;;;;;5018122;28;20127;-68
2022/12/04 01:32:18;;;;;;;44.55;19.15;;;0.40;99.90;;;;;;5015904;28;20053;-69
2022/12/04 01:34:44;;;;;;;42.85;19.15;;;0.40;99.90;;;;;;5035681;28;20148;-69
2022/12/04 01:37:10;;;;;;;41.60;18.60;;;0.30;99.90;;;;;;5035712;28;20041;-68
2022/12/04 01:39:36;;;;;;;42.22;18.67;;;0.30;99.90;;;;;;5035087;28;20064;-69
2022/12/04 01:42:02;;;;;;;41.22;18.25;;;0.30;99.90;;;;;;5035976;28;20045;-69
2022/12/04 01:44:29;;;;;;;40.22;18.13;;;0.90;99.90;;;;;;5031775;28;21792;-69
2022/12/04 01:46:57;;;;;;;44.70;20.40;;;0.20;99.90;;;;;;5031399;28;20045;-70
2022/12/04 01:49:23;;;;;;;45.97;20.10;;;0.20;99.90;;;;;;5067196;28;20057;-69
2022/12/04 01:52:20;;;;;;;48.80;21.15;;;0.20;99.90;;;;;;5019328;28;20455;-69
2022/12/04 01:54:51;;;;;;;44.88;19.40;;;0.20;99.90;;;;;;5023834;28;20406;-68
2022/12/04 01:57:20;;;;;;;43.17;18.65;;;0.20;99.90;;;;;;5019147;28;20170;-70
2022/12/04 02:00:12;;;;;;;43.03;19.85;;;0.20;99.90;;;;;;5034236;28;20095;-69
2022/12/04 02:02:41;;;;;;;40.42;18.17;;;0.20;99.90;;;;;;5031180;28;20037;-69
2022/12/04 02:05:11;;;;;;;46.28;19.58;;;0.50;99.90;;;;;;5035057;28;20072;-68
2022/12/04 02:07:39;;;;;;;46.25;20.38;;;0.10;99.90;;;;;;5048243;28;20132;-68
2022/12/04 02:10:07;;;;;;;43.92;19.90;;;0.20;99.90;;;;;;5015774;28;20037;-68
2022/12/04 02:13:04;;;;;;;42.95;19.73;;;0.10;99.90;;;;;;5035567;28;20085;-68
2022/12/04 02:15:41;;;;;;;48.13;20.58;;;0.10;99.90;;;;;;5034295;28;20049;-68
2022/12/04 02:18:33;;;;;;;45.75;20.60;;;0.10;99.90;;;;;;5031161;28;20839;-69
2022/12/04 02:21:08;;;;;;;42.85;19.52;;;0.10;99.90;;;;;;5063121;28;20049;-68
2022/12/04 02:23:40;;;;;;;42.53;19.42;;;0.10;99.90;;;;;;5028447;28;20427;-69
2022/12/04 02:26:43;;;;;;;44.55;21.02;;;0.10;99.90;;;;;;5036320;28;20075;-69
2022/12/04 02:29:27;;;;;;;44.85;20.33;;;0.10;99.90;;;;;;5036311;28;20056;-69
2022/12/04 02:32:18;;;;;;;50.53;20.48;;;0.10;99.90;;;;;;5021487;28;20105;-70
2022/12/04 02:34:52;;;;;;;47.45;20.77;;;0.10;99.90;;;;;;5054471;28;20042;-69
2022/12/04 02:37:25;;;;;;;49.55;20.45;;;0.10;99.90;;;;;;5023013;28;20049;-68
2022/12/04 02:39:53;;;;;;;47.58;21.00;;;0.10;99.90;;;;;;5038724;28;20505;-68
2022/12/04 02:42:35;;;;;;;50.08;20.98;;;0.10;99.90;;;;;;5025688;28;20049;-68
2022/12/04 02:45:08;;;;;;;46.47;21.30;;;0.10;99.90;;;;;;5043210;28;20045;-70
2022/12/04 02:47:36;;;;;;;53.65;22.27;;;0.10;99.90;;;;;;5039991;28;20043;-69
2022/12/04 02:50:07;;;;;;;48.78;21.83;;;0.10;99.90;;;;;;5041324;28;20060;-69
2022/12/04 02:52:42;;;;;;;49.20;21.95;;;0.10;99.90;;;;;;5072909;28;20047;-69
2022/12/04 02:55:30;;;;;;;52.08;20.92;;;0.10;99.90;;;;;;5036129;28;20128;-69
2022/12/04 02:58:03;;;;;;;51.05;21.75;;;0.10;99.90;;;;;;5071280;28;20041;-69
2022/12/04 03:00:30;;;;;;;49.92;21.15;;;0.10;99.90;;;;;;5038370;28;20049;-69
2022/12/04 03:03:21;;;;;;;48.83;21.83;;;0.10;99.90;;;;;;5042776;28;20541;-68
2022/12/04 03:06:04;;;;;;;46.75;21.52;;;0.10;99.90;;;;;;5028154;28;20041;-68
2022/12/04 03:08:44;;;;;;;48.65;22.95;;;0.10;99.90;;;;;;5046274;28;20037;-68
2022/12/04 03:11:10;;;;;;;53.40;23.38;;;0.10;99.90;;;;;;5041849;28;20448;-69
2022/12/04 03:13:41;;;;;;;55.08;23.92;;;0.40;99.90;;;;;;5020182;28;20053;-69
2022/12/04 03:16:11;;;;;;;;;;;0.10;99.90;;;;;;5039777;28;20437;-68
2022/12/04 03:18:42;;;;;;;52.97;24.42;;;0.10;99.90;;;;;;5075827;28;20003;-69
2022/12/04 03:21:17;;;;;;;52.72;24.05;;;0.50;99.90;;;;;;5077161;28;20047;-68
2022/12/04 03:23:49;;;;;;;52.53;23.73;;;0.00;99.90;;;;;;5039266;28;20119;-68
2022/12/04 03:26:44;;;;;;;51.58;23.30;;;0.00;99.90;;;;;;5048427;28;20052;-69
2022/12/04 03:29:45;;;;;;;53.05;23.80;;;0.00;99.90;;;;;;5039728;28;20092;-69
2022/12/04 03:32:23;;;;;;;56.67;25.27;;;0.00;99.90;;;;;;5000653;28;20119;-69
2022/12/04 03:34:57;;;;;;;53.17;24.45;;;0.00;99.90;;;;;;5041298;28;20041;-69
2022/12/04 03:37:36;;;;;;;59.63;25.13;;;0.00;99.90;;;;;;5041043;28;20114;-70
2022/12/04 03:40:10;;;;;;;55.45;26.83;;;0.00;99.90;;;;;;5056013;28;20072;-68
2022/12/04 03:42:44;;;;;;;63.08;26.35;;;0.00;99.90;;;;;;5040955;28;20041;-68
2022/12/04 03:45:23;;;;;;;57.15;25.77;;;0.00;99.90;;;;;;5039144;28;20033;-68
2022/12/04 03:48:00;;;;;;;60.10;26.27;;;0.00;99.90;;;;;;5040908;28;20752;-69
2022/12/04 03:50:53;;;;;;;62.08;28.02;;;0.00;99.90;;;;;;5039368;28;20141;-69
2022/12/04 03:53:27;;;;;;;57.53;26.10;;;0.00;99.90;;;;;;5032196;28;20049;-68
2022/12/04 03:56:03;;;;;;;65.03;27.88;;;0.00;99.90;;;;;;5039200;28;20080;-73
2022/12/04 03:58:33;;;;;;;60.00;27.52;;;0.00;99.90;;;;;;5037619;28;20044;-73
2022/12/04 04:01:02;;;;;;;60.03;27.70;;;0.00;99.90;;;;;;5042102;28;20041;-74
2022/12/04 04:03:32;;;;;;;60.55;26.23;;;-0.10;99.90;;;;;;5038715;28;20087;-73
2022/12/04 04:06:09;;;;;;;58.10;27.05;;;0.00;99.90;;;;;;5042280;28;20048;-73
2022/12/04 04:08:38;;;;;;;62.20;27.45;;;0.00;99.90;;;;;;5037640;28;20597;-73
2022/12/04 04:11:20;;;;;;;63.03;26.73;;;-0.10;99.90;;;;;;5039469;28;20059;-74
2022/12/04 04:25:17;;;;;;;60.38;28.40;;;-0.10;99.90;;;;;;5039762;28;20152;-74
2022/12/04 04:27:54;;;;;;;61.28;28.05;;;-0.10;99.90;;;;;;5047884;28;20053;-74
2022/12/04 04:30:20;;;;;;;62.97;27.70;;;0.00;99.90;;;;;;5032643;28;20124;-74
2022/12/04 04:32:56;;;;;;;56.97;27.35;;;-0.10;99.90;;;;;;5031736;28;20541;-74
2022/12/04 04:35:54;;;;;;;61.38;28.73;;;-0.10;99.90;;;;;;5046176;28;20194;-74
2022/12/04 04:38:43;;;;;;;59.92;27.33;;;-0.10;99.90;;;;;;5015834;28;20056;-74
2022/12/04 04:41:20;;;;;;;66.85;28.60;;;-0.10;99.90;;;;;;5043480;28;20072;-74
2022/12/04 04:43:56;;;;;;;59.20;27.33;;;-0.10;99.90;;;;;;5023618;28;20082;-73
2022/12/04 04:46:34;;;;;;;56.53;26.27;;;0.60;99.90;;;;;;5058251;28;20058;-73
2022/12/04 04:49:03;;;;;;;62.28;27.55;;;0.10;99.90;;;;;;5044122;28;20189;-74
2022/12/04 04:51:32;;;;;;;66.00;28.98;;;1.20;99.90;;;;;;5040338;28;20523;-72
2022/12/04 04:54:02;;;;;;;57.72;27.48;;;-0.10;99.90;;;;;;5022722;28;20037;-74
2022/12/04 04:56:29;;;;;;;66.78;30.13;;;-0.10;99.90;;;;;;5048938;28;20048;-69
2022/12/04 04:58:54;;;;;;;62.40;28.05;;;-0.10;99.90;;;;;;5045217;28;20033;-69
2022/12/04 05:01:23;;;;;;;59.67;26.73;;;-0.10;99.90;;;;;;5039839;28;20517;-69
2022/12/04 05:03:49;;;;;;;62.85;27.40;;;-0.10;99.90;;;;;;5069754;28;20290;-69
2022/12/04 05:06:14;;;;;;;66.22;29.67;;;-0.10;99.90;;;;;;5037827;28;20491;-69
2022/12/04 05:08:40;;;;;;;60.78;27.15;;;-0.10;99.90;;;;;;5042563;28;20659;-69
2022/12/04 05:11:13;;;;;;;65.32;28.27;;;-0.10;99.90;;;;;;5039957;28;20052;-69
2022/12/04 05:13:40;;;;;;;60.67;28.40;;;-0.10;99.90;;;;;;5069140;28;20041;-69
2022/12/04 05:16:10;;;;;;;63.45;27.27;;;-0.10;99.90;;;;;;5023692;28;20057;-68
2022/12/04 05:18:36;;;;;;;65.72;29.48;;;-0.10;99.90;;;;;;5072374;28;20029;-69
2022/12/04 05:21:15;;;;;;;66.95;28.67;;;0.10;99.90;;;;;;5039718;28;20033;-68
2022/12/04 05:23:41;;;;;;;61.78;28.58;;;-0.10;99.90;;;;;;5037083;28;20052;-68
2022/12/04 05:26:06;;;;;;;65.18;29.02;;;-0.10;99.90;;;;;;5019449;28;20550;-68
2022/12/04 05:28:32;;;;;;;66.53;29.60;;;-0.10;99.90;;;;;;5044053;28;20406;-68
2022/12/04 05:31:00;;;;;;;63.30;28.15;;;-0.10;99.90;;;;;;5036411;28;20041;-68
2022/12/04 05:33:26;;;;;;;60.72;29.27;;;0.70;99.90;;;;;;5037490;28;20049;-68
2022/12/04 05:36:00;;;;;;;61.80;30.33;;;0.10;99.90;;;;;;5040339;28;20053;-69
2022/12/04 05:38:26;;;;;;;62.35;27.95;;;-0.10;99.90;;;;;;5039084;28;20123;-69
2022/12/04 05:40:52;;;;;;;61.50;27.02;;;0.10;99.90;;;;;;5021110;28;20442;-69
2022/12/04 05:43:18;;;;;;;66.85;30.35;;;-0.10;99.90;;;;;;5036470;28;20040;-68
2022/12/04 05:45:44;;;;;;;63.03;29.60;;;0.30;99.90;;;;;;5071245;28;20052;-69
2022/12/04 05:48:09;;;;;;;61.72;28.45;;;0.30;99.90;;;;;;5041706;28;20041;-69
2022/12/04 05:50:36;;;;;;;63.35;27.52;;;-0.10;99.90;;;;;;5037197;28;20049;-69
2022/12/04 05:53:02;;;;;;;60.58;28.98;;;-0.10;99.90;;;;;;5072812;28;20155;-69
2022/12/04 05:55:28;;;;;;;62.53;28.17;;;0.70;99.90;;;;;;5027458;28;20875;-69
2022/12/04 05:57:56;;;;;;;64.35;29.58;;;-0.10;99.90;;;;;;5023094;28;20534;-68
2022/12/04 06:00:22;;;;;;;63.60;28.17;;;-0.10;99.90;;;;;;5019310;28;20939;-69
2022/12/04 06:02:48;;;;;;;62.75;28.15;;;-0.10;99.90;;;;;;5042605;28;20738;-69
2022/12/04 06:05:14;;;;;;;65.10;28.48;;;-0.10;99.90;;;;;;5021178;28;20068;-69
2022/12/04 06:07:40;;;;;;;62.28;28.50;;;-0.10;99.90;;;;;;5040693;28;20052;-69
2022/12/04 06:10:06;;;;;;;61.45;28.25;;;-0.10;99.90;;;;;;5051577;28;20041;-70
2022/12/04 06:12:31;;;;;;;61.00;28.17;;;-0.10;99.90;;;;;;5043419;28;20495;-68
2022/12/04 06:14:57;;;;;;;59.35;29.23;;;-0.10;99.90;;;;;;5049069;28;20044;-68
2022/12/04 06:17:23;;;;;;;60.30;27.63;;;-0.10;99.90;;;;;;5040252;28;20414;-68
2022/12/04 06:19:49;;;;;;;59.22;26.92;;;-0.10;99.90;;;;;;5023005;28;20041;-68
2022/12/04 06:22:14;;;;;;;63.20;27.75;;;-0.10;99.90;;;;;;5043337;28;20483;-66
2022/12/04 06:24:40;;;;;;;64.45;28.38;;;0.00;99.90;;;;;;5038983;28;20118;-68
2022/12/04 06:27:06;;;;;;;69.45;29.15;;;0.00;99.90;;;;;;5043842;28;20083;-68
2022/12/04 06:29:32;;;;;;;61.40;27.33;;;-0.10;99.90;;;;;;5034687;28;20464;-69
2022/12/04 06:31:58;;;;;;;58.03;27.50;;;0.00;99.90;;;;;;5024249;28;20041;-68
2022/12/04 06:34:24;;;;;;;64.85;28.80;;;0.00;99.90;;;;;;5040277;28;20041;-68
2022/12/04 06:36:50;;;;;;;61.40;28.42;;;0.00;99.90;;;;;;5041042;28;20722;-70
2022/12/04 06:39:16;;;;;;;61.22;28.08;;;0.30;99.90;;;;;;5042754;28;20051;-68
2022/12/04 06:41:41;;;;;;;63.42;27.15;;;0.00;99.90;;;;;;5032113;28;20120;-68
2022/12/04 06:44:07;;;;;;;59.78;27.85;;;0.00;99.90;;;;;;5048332;28;20102;-68
2022/12/04 06:46:33;;;;;;;63.70;27.85;;;0.00;99.90;;;;;;5047051;28;20652;-68
2022/12/04 06:49:00;;;;;;;64.78;28.73;;;0.00;99.90;;;;;;5042664;28;20568;-68
2022/12/04 06:51:28;;;;;;;69.28;28.27;;;0.00;99.90;;;;;;5080384;28;20131;-68
2022/12/04 06:53:55;;;;;;;59.78;26.55;;;0.10;99.90;;;;;;5075671;28;20037;-69
2022/12/04 06:56:23;;;;;;;59.72;25.25;;;0.10;99.90;;;;;;5024573;28;20046;-69
2022/12/04 06:58:51;;;;;;;60.78;26.10;;;0.10;99.90;;;;;;5030136;28;20045;-69
2022/12/04 07:01:22;;;;;;;61.67;27.75;;;0.10;99.90;;;;;;5031255;28;20140;-68
2022/12/04 07:03:48;;;;;;;;;;;0.10;99.90;;;;;;5034164;28;20237;-70
2022/12/04 07:06:26;;;;;;;58.83;25.15;;;0.10;99.90;;;;;;5036171;28;19954;-68
2022/12/04 07:08:54;;;;;;;63.67;26.52;;;0.10;99.90;;;;;;5033508;28;20070;-69
2022/12/04 07:11:21;;;;;;;63.17;28.15;;;0.10;99.90;;;;;;5038231;28;20123;-69
2022/12/04 07:13:47;;;;;;;59.08;27.13;;;0.40;99.90;;;;;;5076634;28;20053;-69
2022/12/04 07:16:16;;;;;;;64.47;28.20;;;0.10;99.90;;;;;;5036194;28;20045;-68
2022/12/04 07:18:42;;;;;;;62.95;26.90;;;0.20;99.90;;;;;;5033294;28;20048;-68
2022/12/04 07:21:10;;;;;;;65.60;28.98;;;0.10;99.90;;;;;;5037058;28;20119;-69
2022/12/04 07:23:36;;;;;;;58.15;26.13;;;0.10;99.90;;;;;;5030009;28;20443;-69
2022/12/04 07:26:07;;;;;;;63.67;26.45;;;0.10;99.90;;;;;;5022715;28;20080;-68
2022/12/04 07:28:35;;;;;;;57.92;27.58;;;0.10;99.90;;;;;;5034785;28;20049;-69
2022/12/04 07:31:05;;;;;;;56.10;26.90;;;0.10;99.90;;;;;;5032490;28;20140;-68
2022/12/04 07:33:33;;;;;;;63.67;28.35;;;0.10;99.90;;;;;;5028467;28;20064;-69
2022/12/04 07:36:04;;;;;;;58.58;26.98;;;0.10;99.90;;;;;;5062339;28;20303;-70
2022/12/04 07:38:30;;;;;;;61.38;27.77;;;0.10;99.90;;;;;;5043955;28;20053;-68
2022/12/04 07:40:58;;;;;;;62.10;28.52;;;0.10;99.90;;;;;;5030173;28;20537;-68
2022/12/04 07:43:25;;;;;;;60.25;27.33;;;0.20;99.90;;;;;;5033414;28;20041;-68
2022/12/04 07:45:51;;;;;;;61.05;27.23;;;-0.30;99.90;;;;;;5027502;28;20584;-69
2022/12/04 07:48:16;;;;;;;58.47;26.70;;;0.20;99.90;;;;;;5013274;28;20041;-69
2022/12/04 07:50:43;;;;;;;62.75;28.20;;;0.20;99.90;;;;;;5033647;28;20098;-69
2022/12/04 07:53:08;;;;;;;62.75;28.33;;;0.20;99.90;;;;;;5013149;28;20281;-69
2022/12/04 07:55:34;;;;;;;62.63;27.20;;;0.50;99.90;;;;;;5035202;28;20102;-69
2022/12/04 07:58:00;;;;;;;61.88;27.55;;;0.20;99.90;;;;;;5072658;28;20748;-68
2022/12/04 08:00:26;;;;;;;56.95;26.10;;;0.20;99.90;;;;;;5039008;28;20441;-69
2022/12/04 08:02:51;;;;;;;60.60;28.40;;;1.00;99.90;;;;;;5041094;28;20418;-70
2022/12/04 08:05:17;;;;;;;68.63;27.90;;;0.20;99.90;;;;;;5036783;28;20048;-70
2022/12/04 08:07:43;;;;;;;60.47;26.90;;;0.20;99.90;;;;;;5036973;28;20052;-70
2022/12/04 08:10:09;;;;;;;58.25;27.55;;;0.30;99.90;;;;;;5025476;28;20178;-68
2022/12/04 08:12:35;;;;;;;57.90;27.15;;;0.20;99.90;;;;;;5023637;28;20044;-69
2022/12/04 08:15:01;;;;;;;61.75;27.33;;;0.30;99.90;;;;;;5025540;28;20052;-69
2022/12/04 08:17:27;;;;;;;63.72;26.10;;;1.10;99.90;;;;;;5038368;28;20580;-69
2022/12/04 08:19:52;;;;;;;61.75;27.45;;;0.30;99.90;;;;;;5039015;28;20626;-68
2022/12/04 08:22:18;;;;;;;61.03;26.92;;;0.30;99.90;;;;;;5036022;28;20379;-69
2022/12/04 08:24:44;;;;;;;62.47;27.70;;;0.30;99.90;;;;;;5031433;28;20126;-68
2022/12/04 08:27:10;;;;;;;62.03;28.55;;;0.50;99.90;;;;;;5030043;28;20493;-68
2022/12/04 08:29:36;;;;;;;56.97;27.33;;;0.40;99.90;;;;;;5044025;28;20125;-71
2022/12/04 08:32:02;;;;;;;61.97;26.77;;;0.40;99.90;;;;;;5075747;28;20043;-69
2022/12/04 08:34:28;;;;;;;63.47;28.73;;;0.40;99.90;;;;;;5020993;28;20045;-69
2022/12/04 08:36:54;;;;;;;62.10;27.65;;;0.40;99.90;;;;;;5073355;28;20045;-69
2022/12/04 08:39:20;;;;;;;65.75;27.73;;;0.40;99.90;;;;;;5039670;28;20567;-70
2022/12/04 08:41:46;;;;;;;61.47;27.65;;;0.50;99.90;;;;;;5026401;28;20639;-69
2022/12/04 08:44:11;;;;;;;59.20;27.00;;;0.50;99.90;;;;;;5041797;28;20119;-70
2022/12/04 08:46:37;;;;;;;62.28;28.30;;;0.50;99.90;;;;;;5042901;28;20519;-68
2022/12/04 08:49:04;;;;;;;59.33;25.77;;;0.60;99.90;;;;;;5038964;28;20037;-67
2022/12/04 08:51:33;;;;;;;60.88;27.27;;;0.50;99.90;;;;;;5038615;28;20048;-67
2022/12/04 08:54:05;;;;;;;59.13;27.52;;;0.50;99.90;;;;;;5034714;28;20038;-68
2022/12/04 08:56:32;;;;;;;56.03;26.52;;;0.60;99.90;;;;;;5024836;28;20106;-70
2022/12/04 08:58:59;;;;;;;57.53;27.00;;;0.60;99.90;;;;;;5054257;28;20045;-69
2022/12/04 09:01:27;;;;;;;55.53;25.67;;;0.60;99.90;;;;;;5038900;28;20033;-69
2022/12/04 09:03:53;;;;;;;55.67;25.88;;;0.60;99.90;;;;;;5049577;28;20171;-69
2022/12/04 09:06:19;;;;;;;57.97;26.27;;;0.60;99.90;;;;;;5024296;28;20902;-69
2022/12/04 09:08:45;;;;;;;56.63;26.95;;;0.60;99.90;;;;;;5038710;28;20525;-69
2022/12/04 09:11:14;;;;;;;61.05;28.20;;;0.70;99.90;;;;;;5035609;28;20037;-69
2022/12/04 09:13:40;;;;;;;55.70;26.77;;;0.70;99.90;;;;;;5076297;28;20402;-69
2022/12/04 09:16:08;;;;;;;53.38;25.60;;;0.70;99.90;;;;;;5034372;28;20074;-69
2022/12/04 09:18:35;;;;;;;60.45;28.08;;;0.70;99.90;;;;;;5041976;28;20048;-69
2022/12/04 09:21:04;;;;;;;61.30;28.05;;;1.30;99.90;;;;;;5026077;28;20048;-69
2022/12/04 09:23:32;;;;;;;57.90;25.80;;;0.70;99.90;;;;;;5035138;28;20628;-69
2022/12/04 09:25:58;;;;;;;56.60;25.48;;;0.70;99.90;;;;;;5031946;28;20059;-69
2022/12/04 09:28:24;;;;;;;57.75;26.20;;;0.80;99.90;;;;;;5047648;28;20048;-69
2022/12/04 09:31:02;;;;;;;55.20;26.73;;;0.80;99.90;;;;;;5030817;28;20041;-69
2022/12/04 09:33:29;;;;;;;56.55;26.55;;;0.90;99.90;;;;;;5056997;28;20049;-69
2022/12/04 09:35:57;;;;;;;53.75;25.83;;;0.90;99.90;;;;;;5014781;28;20155;-69
2022/12/04 09:38:23;;;;;;;53.28;24.55;;;0.90;99.90;;;;;;5034649;28;20076;-68
2022/12/04 09:40:53;;;;;;;53.40;23.88;;;0.90;99.90;;;;;;5031893;28;20500;-68
2022/12/04 09:43:31;;;;;;;51.70;25.65;;;1.00;99.90;;;;;;5032103;28;20080;-68
2022/12/04 09:46:08;;;;;;;54.53;25.08;;;1.00;99.90;;;;;;5021669;28;20040;-69
2022/12/04 09:48:38;;;;;;;50.42;24.60;;;1.00;99.90;;;;;;5073847;28;20047;-68
2022/12/04 09:51:06;;;;;;;47.70;22.58;;;1.10;99.90;;;;;;5046936;28;20057;-69
2022/12/04 09:53:53;;;;;;;50.03;24.33;;;1.10;99.90;;;;;;5043703;28;20563;-68
2022/12/04 09:56:22;;;;;;;49.47;24.58;;;1.10;99.90;;;;;;5076252;28;21651;-69
2022/12/04 09:59:18;;;;;;;45.80;22.77;;;1.20;99.90;;;;;;5044859;28;20068;-69
2022/12/04 10:01:59;;;;;;;45.22;22.77;;;1.20;99.90;;;;;;5076780;28;20048;-69
2022/12/04 10:04:25;;;;;;;46.83;21.70;;;1.30;99.90;;;;;;5025749;28;20083;-69
2022/12/04 10:07:15;;;;;;;41.45;21.15;;;1.30;99.90;;;;;;5018955;28;20763;-70
2022/12/04 10:09:44;;;;;;;43.83;22.10;;;1.90;99.90;;;;;;5045584;28;20036;-70
2022/12/04 10:12:27;;;;;;;41.85;20.95;;;1.40;99.90;;;;;;5048173;28;20041;-69
2022/12/04 10:15:19;;;;;;;44.13;20.92;;;1.40;99.90;;;;;;5036339;28;20036;-69
2022/12/04 10:17:56;;;;;;;44.00;21.02;;;1.50;99.90;;;;;;5040113;28;20044;-69
2022/12/04 10:20:44;;;;;;;42.30;19.85;;;1.50;99.90;;;;;;5044169;28;20049;-70
2022/12/04 10:23:34;;;;;;;42.15;20.15;;;1.50;99.90;;;;;;5043710;28;20080;-70
2022/12/04 10:26:02;;;;;;;41.08;19.95;;;1.60;99.90;;;;;;5048572;28;20049;-69
2022/12/04 10:28:36;;;;;;;37.67;18.75;;;1.70;99.90;;;;;;5043178;28;20712;-69
2022/12/04 10:31:04;;;;;;;40.03;20.73;;;1.60;99.90;;;;;;5056172;28;20463;-70
2022/12/04 10:33:44;;;;;;;40.30;19.20;;;1.60;99.90;;;;;;5041576;28;20495;-70
2022/12/04 10:36:18;;;;;;;35.85;18.83;;;1.70;99.90;;;;;;5054667;28;20041;-68
2022/12/04 10:38:55;;;;;;;38.30;18.70;;;1.70;99.90;;;;;;5059054;28;20044;-68
2022/12/04 10:41:27;;;;;;;40.53;19.85;;;1.80;99.90;;;;;;5039245;28;20037;-69
2022/12/04 10:43:54;;;;;;;41.90;20.52;;;2.70;99.90;;;;;;5042570;28;20110;-69
2022/12/04 10:46:22;;;;;;;38.97;17.73;;;1.80;99.90;;;;;;5043807;28;20084;-69
2022/12/04 10:48:51;;;;;;;37.17;18.38;;;1.80;99.90;;;;;;5042504;28;20049;-69
2022/12/04 10:51:20;;;;;;;38.72;18.55;;;1.80;99.90;;;;;;5037386;28;20175;-70
2022/12/04 10:53:48;;;;;;;38.25;18.48;;;1.80;99.90;;;;;;4998429;28;20648;-69
2022/12/04 10:56:24;;;;;;;36.03;18.23;;;1.80;99.90;;;;;;5029388;28;20037;-69
2022/12/04 10:59:02;;;;;;;38.13;18.85;;;1.80;99.90;;;;;;5059249;28;20072;-68
2022/12/04 11:01:30;;;;;;;35.83;18.00;;;1.80;99.90;;;;;;5027626;28;20041;-70
2022/12/04 11:04:24;;;;;;;37.30;18.63;;;1.80;99.90;;;;;;5058083;28;20052;-69
2022/12/04 11:06:58;;;;;;;36.20;18.00;;;1.80;99.90;;;;;;5012961;28;20061;-70
2022/12/04 11:09:24;;;;;;;34.30;17.02;;;1.80;99.90;;;;;;5024183;28;21628;-69
2022/12/04 11:11:51;;;;;;;32.45;16.17;;;1.80;99.90;;;;;;5034210;28;20037;-69
2022/12/04 11:14:22;;;;;;;37.45;17.05;;;1.90;99.90;;;;;;5020151;28;20120;-69
2022/12/04 11:17:13;;;;;;;33.88;16.40;;;1.90;99.90;;;;;;5059207;28;20047;-69
2022/12/04 11:19:38;;;;;;;29.90;14.60;;;1.90;99.90;;;;;;5036549;28;20045;-70
2022/12/04 11:22:13;;;;;;;28.88;15.00;;;1.90;99.90;;;;;;5041967;28;20040;-70
2022/12/04 11:24:41;;;;;;;27.88;14.30;;;1.90;99.90;;;;;;5042073;28;20124;-67
2022/12/04 11:27:18;;;;;;;28.35;14.98;;;1.90;99.90;;;;;;5021825;28;20565;-71
2022/12/04 11:29:45;;;;;;;31.63;15.38;;;2.00;99.90;;;;;;5035898;28;20071;-70
2022/12/04 11:32:27;;;;;;;30.38;14.73;;;2.00;99.90;;;;;;5015152;28;20581;-69
2022/12/04 11:34:57;;;;;;;28.00;13.80;;;2.00;99.90;;;;;;5021792;28;21215;-69
2022/12/04 11:37:49;;;;;;;28.30;13.25;;;2.00;99.90;;;;;;5043141;28;20132;-71
2022/12/04 11:40:16;;;;;;;;;;;2.00;99.90;;;;;;5038480;28;20104;-71
2022/12/04 11:42:41;;;;;;;25.27;13.38;;;2.00;99.90;;;;;;5024354;28;19924;-69
2022/12/04 11:45:22;;;;;;;27.45;13.07;;;2.00;99.90;;;;;;5034705;28;20045;-70
2022/12/04 11:47:56;;;;;;;26.00;12.85;;;2.00;99.90;;;;;;5040253;28;20387;-69
2022/12/04 11:50:43;;;;;;;25.95;13.32;;;2.00;99.90;;;;;;5047223;28;20115;-68
2022/12/04 11:53:27;;;;;;;28.45;14.18;;;2.00;99.90;;;;;;5042939;28;20347;-70
2022/12/04 11:56:37;;;;;;;27.77;13.30;;;2.00;99.90;;;;;;5070290;28;21570;-70
2022/12/04 11:59:17;;;;;;;24.63;12.27;;;2.00;99.90;;;;;;5006333;28;20049;-69
2022/12/04 12:01:42;;;;;;;25.40;13.52;;;2.00;99.90;;;;;;5041659;28;20120;-70
2022/12/04 12:04:33;;;;;;;28.33;14.52;;;2.00;99.90;;;;;;5028043;28;20128;-69
2022/12/04 12:07:31;;;;;;;27.33;13.18;;;2.00;99.90;;;;;;5040909;28;20038;-70
2022/12/04 12:10:25;;;;;;;25.77;13.32;;;2.00;99.90;;;;;;5038718;28;20057;-70
2022/12/04 12:13:25;;;;;;;26.00;12.75;;;2.00;99.90;;;;;;5026327;28;20068;-70
2022/12/04 12:16:15;;;;;;;28.35;13.82;;;2.00;99.90;;;;;;5043602;28;20049;-70
2022/12/04 12:18:53;;;;;;;25.50;13.30;;;2.00;99.90;;;;;;5038393;28;20072;-71
2022/12/04 12:21:41;;;;;;;30.50;15.07;;;2.00;99.90;;;;;;5037250;28;20055;-70
2022/12/04 12:24:22;;;;;;;28.23;13.02;;;2.00;99.90;;;;;;5043612;28;20150;-71
2022/12/04 12:27:30;;;;;;;22.48;11.60;;;2.10;99.90;;;;;;5078326;28;20080;-70
2022/12/04 12:30:06;;;;;;;34.00;15.38;;;2.10;99.90;;;;;;5069353;28;20057;-70
2022/12/04 12:32:57;;;;;;;28.98;14.57;;;2.10;99.90;;;;;;5043700;28;20044;-70
2022/12/04 12:35:29;;;;;;;25.80;13.63;;;2.10;99.90;;;;;;5045242;28;20050;-70
2022/12/04 12:38:18;;;;;;;25.52;12.95;;;2.10;99.90;;;;;;5079516;28;20052;-71
2022/12/04 12:40:49;;;;;;;25.98;12.60;;;2.20;99.90;;;;;;5011087;28;20065;-71
2022/12/04 12:43:29;;;;;;;26.17;13.30;;;2.40;99.90;;;;;;5017023;28;20049;-72
2022/12/04 12:46:17;;;;;;;28.27;14.23;;;2.20;99.90;;;;;;5030913;28;20177;-72
2022/12/04 12:48:57;;;;;;;28.17;13.77;;;2.20;99.90;;;;;;5033938;28;20045;-72
2022/12/04 12:51:45;;;;;;;26.02;13.52;;;2.20;99.90;;;;;;5076376;28;20048;-71
2022/12/04 12:54:29;;;;;;;28.70;14.18;;;2.20;99.90;;;;;;5039912;28;20036;-71
2022/12/04 12:57:10;;;;;;;29.70;15.35;;;2.20;99.90;;;;;;5040756;28;20033;-69
2022/12/04 12:59:40;;;;;;;28.48;14.90;;;2.20;99.90;;;;;;5040889;28;20047;-70
2022/12/04 13:02:29;;;;;;;30.52;14.80;;;2.90;99.90;;;;;;5039327;28;20830;-70
2022/12/04 13:04:59;;;;;;;29.88;15.32;;;2.20;99.90;;;;;;5042273;28;20044;-69
2022/12/04 13:07:30;;;;;;;32.03;14.70;;;2.20;99.90;;;;;;5047083;28;20048;-70
2022/12/04 13:10:03;;;;;;;31.27;15.07;;;2.20;99.90;;;;;;5040704;28;20456;-70
2022/12/04 13:12:42;;;;;;;31.83;15.20;;;2.20;99.90;;;;;;5046738;28;20056;-70